sensor_id;sensor_type;location;lat;lon;timestamp;P1;durP1;ratioP1;P2;durP2;ratioP2
23888;SDS011;12125;40.102;18.326;2022-12-04T00:02:06;46.10;;;13.52;;
23888;SDS011;12125;40.102;18.326;2022-12-04T00:04:33;49.13;;;12.85;;
23888;SDS011;12125;40.102;18.326;2022-12-04T00:07:00;40.78;;;13.77;;
23888;SDS011;12125;40.102;18.326;2022-12-04T00:09:26;35.00;;;13.73;;
23888;SDS011;12125;40.102;18.326;2022-12-04T00:11:53;46.88;;;15.18;;
23888;SDS011;12125;40.102;18.326;2022-12-04T00:14:20;36.97;;;14.15;;
23888;SDS011;12125;40.102;18.326;2022-12-04T00:16:46;33.60;;;14.75;;
23888;SDS011;12125;40.102;18.326;2022-12-04T00:19:15;32.72;;;13.82;;
23888;SDS011;12125;40.102;18.326;2022-12-04T00:21:42;31.02;;;11.85;;
23888;SDS011;12125;40.102;18.326;2022-12-04T00:24:09;31.75;;;13.18;;
23888;SDS011;12125;40.102;18.326;2022-12-04T00:26:36;45.15;;;14.35;;
23888;SDS011;12125;40.102;18.326;2022-12-04T00:29:03;33.67;;;13.98;;
23888;SDS011;12125;40.102;18.326;2022-12-04T00:31:29;43.08;;;15.25;;
23888;SDS011;12125;40.102;18.326;2022-12-04T00:33:56;33.08;;;12.65;;
23888;SDS011;12125;40.102;18.326;2022-12-04T00:36:24;31.30;;;13.43;;
23888;SDS011;12125;40.102;18.326;2022-12-04T00:38:51;34.75;;;12.50;;
23888;SDS011;12125;40.102;18.326;2022-12-04T00:41:20;28.45;;;9.85;;
23888;SDS011;12125;40.102;18.326;2022-12-04T00:43:47;36.72;;;12.13;;
23888;SDS011;12125;40.102;18.326;2022-12-04T00:46:13;49.38;;;13.70;;
23888;SDS011;12125;40.102;18.326;2022-12-04T00:48:40;43.45;;;13.68;;
23888;SDS011;12125;40.102;18.326;2022-12-04T00:51:18;40.90;;;13.88;;
23888;SDS011;12125;40.102;18.326;2022-12-04T00:54:06;46.97;;;13.75;;
23888;SDS011;12125;40.102;18.326;2022-12-04T00:56:32;42.92;;;13.80;;
23888;SDS011;12125;40.102;18.326;2022-12-04T00:58:59;40.72;;;14.07;;
23888;SDS011;12125;40.102;18.326;2022-12-04T01:01:28;39.83;;;14.43;;
23888;SDS011;12125;40.102;18.326;2022-12-04T01:04:03;45.30;;;14.38;;
23888;SDS011;12125;40.102;18.326;2022-12-04T01:06:47;45.13;;;15.23;;
23888;SDS011;12125;40.102;18.326;2022-12-04T01:09:13;35.97;;;13.60;;
23888;SDS011;12125;40.102;18.326;2022-12-04T01:11:41;39.88;;;15.05;;
23888;SDS011;12125;40.102;18.326;2022-12-04T01:14:08;41.88;;;14.77;;
23888;SDS011;12125;40.102;18.326;2022-12-04T01:16:37;45.03;;;12.57;;
23888;SDS011;12125;40.102;18.326;2022-12-04T01:19:06;41.53;;;13.15;;
23888;SDS011;12125;40.102;18.326;2022-12-04T01:21:34;37.90;;;13.10;;
23888;SDS011;12125;40.102;18.326;2022-12-04T01:24:03;42.13;;;12.45;;
23888;SDS011;12125;40.102;18.326;2022-12-04T01:26:30;36.85;;;11.10;;
23888;SDS011;12125;40.102;18.326;2022-12-04T01:28:58;33.10;;;10.88;;
23888;SDS011;12125;40.102;18.326;2022-12-04T01:31:25;36.47;;;12.05;;
23888;SDS011;12125;40.102;18.326;2022-12-04T01:33:54;36.80;;;11.40;;
23888;SDS011;12125;40.102;18.326;2022-12-04T01:36:21;32.22;;;12.07;;
23888;SDS011;12125;40.102;18.326;2022-12-04T01:38:48;34.92;;;11.50;;
23888;SDS011;12125;40.102;18.326;2022-12-04T01:41:18;39.92;;;11.23;;
23888;SDS011;12125;40.102;18.326;2022-12-04T01:44:04;31.83;;;11.15;;
23888;SDS011;12125;40.102;18.326;2022-12-04T01:46:31;39.03;;;11.77;;
23888;SDS011;12125;40.102;18.326;2022-12-04T01:48:58;40.38;;;12.55;;
23888;SDS011;12125;40.102;18.326;2022-12-04T01:51:29;36.22;;;13.27;;
23888;SDS011;12125;40.102;18.326;2022-12-04T01:54:02;38.90;;;11.80;;
23888;SDS011;12125;40.102;18.326;2022-12-04T01:59:06;68.47;;;61.28;;
23888;SDS011;12125;40.102;18.326;2022-12-04T02:01:39;11.63;;;6.28;;
23888;SDS011;12125;40.102;18.326;2022-12-04T02:04:08;9.73;;;2.95;;
23888;SDS011;12125;40.102;18.326;2022-12-04T02:06:35;8.70;;;2.40;;
23888;SDS011;12125;40.102;18.326;2022-12-04T02:09:02;8.25;;;2.58;;
23888;SDS011;12125;40.102;18.326;2022-12-04T02:11:51;6.60;;;1.95;;
23888;SDS011;12125;40.102;18.326;2022-12-04T02:14:24;5.82;;;2.38;;
23888;SDS011;12125;40.102;18.326;2022-12-04T02:22:23;13.90;;;4.97;;
23888;SDS011;12125;40.102;18.326;2022-12-04T02:30:55;11.50;;;3.00;;
23888;SDS011;12125;40.102;18.326;2022-12-04T02:33:27;13.20;;;3.20;;
23888;SDS011;12125;40.102;18.326;2022-12-04T02:36:01;12.98;;;3.25;;
23888;SDS011;12125;40.102;18.326;2022-12-04T02:38:37;13.05;;;3.22;;
23888;SDS011;12125;40.102;18.326;2022-12-04T02:41:17;12.15;;;3.22;;
23888;SDS011;12125;40.102;18.326;2022-12-04T02:43:51;11.73;;;3.05;;
23888;SDS011;12125;40.102;18.326;2022-12-04T02:49:27;15.68;;;3.33;;
23888;SDS011;12125;40.102;18.326;2022-12-04T02:52:19;7.93;;;2.78;;
23888;SDS011;12125;40.102;18.326;2022-12-04T02:54:49;8.43;;;2.63;;
23888;SDS011;12125;40.102;18.326;2022-12-04T02:57:24;8.70;;;2.75;;
23888;SDS011;12125;40.102;18.326;2022-12-04T02:59:54;14.32;;;3.33;;
23888;SDS011;12125;40.102;18.326;2022-12-04T03:02:40;7.18;;;2.22;;
23888;SDS011;12125;40.102;18.326;2022-12-04T03:05:14;8.98;;;2.33;;
23888;SDS011;12125;40.102;18.326;2022-12-04T03:07:55;8.10;;;2.38;;
23888;SDS011;12125;40.102;18.326;2022-12-04T03:10:28;10.15;;;2.35;;
23888;SDS011;12125;40.102;18.326;2022-12-04T03:13:01;9.52;;;2.65;;
23888;SDS011;12125;40.102;18.326;2022-12-04T03:18:38;19.95;;;3.45;;
23888;SDS011;12125;40.102;18.326;2022-12-04T03:21:09;10.15;;;2.65;;
23888;SDS011;12125;40.102;18.326;2022-12-04T03:23:44;10.68;;;2.95;;
23888;SDS011;12125;40.102;18.326;2022-12-04T03:28:53;6.95;;;2.95;;
23888;SDS011;12125;40.102;18.326;2022-12-04T03:31:34;13.20;;;2.92;;
23888;SDS011;12125;40.102;18.326;2022-12-04T03:34:06;10.13;;;2.38;;
23888;SDS011;12125;40.102;18.326;2022-12-04T03:36:35;8.55;;;2.30;;
23888;SDS011;12125;40.102;18.326;2022-12-04T03:39:19;13.95;;;3.13;;
23888;SDS011;12125;40.102;18.326;2022-12-04T03:41:57;9.98;;;2.88;;
23888;SDS011;12125;40.102;18.326;2022-12-04T03:47:25;11.65;;;3.75;;
23888;SDS011;12125;40.102;18.326;2022-12-04T03:49:59;13.90;;;3.17;;
23888;SDS011;12125;40.102;18.326;2022-12-04T03:52:40;11.30;;;3.35;;
23888;SDS011;12125;40.102;18.326;2022-12-04T03:57:39;9.77;;;3.38;;
23888;SDS011;12125;40.102;18.326;2022-12-04T04:02:59;11.40;;;3.17;;
23888;SDS011;12125;40.102;18.326;2022-12-04T04:05:25;6.70;;;2.75;;
23888;SDS011;12125;40.102;18.326;2022-12-04T04:07:53;16.88;;;3.95;;
23888;SDS011;12125;40.102;18.326;2022-12-04T04:10:42;13.02;;;3.42;;
23888;SDS011;12125;40.102;18.326;2022-12-04T04:13:10;7.20;;;2.80;;
23888;SDS011;12125;40.102;18.326;2022-12-04T04:15:57;11.82;;;4.13;;
23888;SDS011;12125;40.102;18.326;2022-12-04T04:18:43;12.02;;;3.20;;
23888;SDS011;12125;40.102;18.326;2022-12-04T04:21:31;15.15;;;3.42;;
23888;SDS011;12125;40.102;18.326;2022-12-04T04:24:21;10.13;;;3.20;;
23888;SDS011;12125;40.102;18.326;2022-12-04T04:26:51;13.88;;;3.47;;
23888;SDS011;12125;40.102;18.326;2022-12-04T04:29:18;19.08;;;4.18;;
23888;SDS011;12125;40.102;18.326;2022-12-04T04:31:55;21.40;;;4.47;;
23888;SDS011;12125;40.102;18.326;2022-12-04T04:34:32;19.25;;;4.40;;
23888;SDS011;12125;40.102;18.326;2022-12-04T04:37:25;22.45;;;4.90;;
23888;SDS011;12125;40.102;18.326;2022-12-04T04:40:01;16.98;;;4.35;;
23888;SDS011;12125;40.102;18.326;2022-12-04T04:42:42;20.15;;;4.75;;
23888;SDS011;12125;40.102;18.326;2022-12-04T04:47:46;22.60;;;5.20;;
23888;SDS011;12125;40.102;18.326;2022-12-04T04:50:14;16.10;;;4.78;;
23888;SDS011;12125;40.102;18.326;2022-12-04T04:52:45;18.63;;;4.30;;
23888;SDS011;12125;40.102;18.326;2022-12-04T04:55:14;18.20;;;5.00;;
23888;SDS011;12125;40.102;18.326;2022-12-04T04:57:44;11.05;;;4.07;;
23888;SDS011;12125;40.102;18.326;2022-12-04T05:00:14;17.70;;;4.45;;
23888;SDS011;12125;40.102;18.326;2022-12-04T05:02:42;16.85;;;4.75;;
23888;SDS011;12125;40.102;18.326;2022-12-04T05:05:10;9.27;;;3.83;;
23888;SDS011;12125;40.102;18.326;2022-12-04T05:07:38;10.40;;;4.32;;
23888;SDS011;12125;40.102;18.326;2022-12-04T05:10:08;13.45;;;3.72;;
23888;SDS011;12125;40.102;18.326;2022-12-04T05:12:35;19.90;;;4.28;;
23888;SDS011;12125;40.102;18.326;2022-12-04T05:15:02;16.55;;;4.85;;
23888;SDS011;12125;40.102;18.326;2022-12-04T05:17:34;8.32;;;4.60;;
23888;SDS011;12125;40.102;18.326;2022-12-04T05:20:03;12.37;;;3.70;;
23888;SDS011;12125;40.102;18.326;2022-12-04T05:22:30;9.30;;;4.05;;
23888;SDS011;12125;40.102;18.326;2022-12-04T05:24:59;13.48;;;3.75;;
23888;SDS011;12125;40.102;18.326;2022-12-04T05:27:27;10.38;;;2.95;;
23888;SDS011;12125;40.102;18.326;2022-12-04T05:29:55;6.78;;;3.08;;
23888;SDS011;12125;40.102;18.326;2022-12-04T05:32:23;7.55;;;2.95;;
23888;SDS011;12125;40.102;18.326;2022-12-04T05:34:51;11.85;;;3.90;;
23888;SDS011;12125;40.102;18.326;2022-12-04T05:37:18;5.22;;;3.17;;
23888;SDS011;12125;40.102;18.326;2022-12-04T05:39:45;8.60;;;3.60;;
23888;SDS011;12125;40.102;18.326;2022-12-04T05:42:12;14.43;;;3.92;;
23888;SDS011;12125;40.102;18.326;2022-12-04T05:44:39;8.73;;;3.10;;
23888;SDS011;12125;40.102;18.326;2022-12-04T05:47:07;5.70;;;3.22;;
23888;SDS011;12125;40.102;18.326;2022-12-04T05:49:34;5.55;;;2.63;;
23888;SDS011;12125;40.102;18.326;2022-12-04T05:52:01;7.60;;;2.88;;
23888;SDS011;12125;40.102;18.326;2022-12-04T05:54:29;2.92;;;1.90;;
23888;SDS011;12125;40.102;18.326;2022-12-04T05:56:57;7.40;;;2.72;;
23888;SDS011;12125;40.102;18.326;2022-12-04T05:59:24;10.23;;;3.90;;
23888;SDS011;12125;40.102;18.326;2022-12-04T06:01:50;4.32;;;2.55;;
23888;SDS011;12125;40.102;18.326;2022-12-04T06:04:17;4.10;;;2.50;;
23888;SDS011;12125;40.102;18.326;2022-12-04T06:06:44;4.47;;;2.53;;
23888;SDS011;12125;40.102;18.326;2022-12-04T06:09:11;8.68;;;3.10;;
23888;SDS011;12125;40.102;18.326;2022-12-04T06:11:39;7.03;;;3.20;;
23888;SDS011;12125;40.102;18.326;2022-12-04T06:14:06;8.43;;;3.20;;
23888;SDS011;12125;40.102;18.326;2022-12-04T06:16:34;6.15;;;2.88;;
23888;SDS011;12125;40.102;18.326;2022-12-04T06:19:03;6.80;;;3.50;;
23888;SDS011;12125;40.102;18.326;2022-12-04T06:21:31;6.90;;;2.97;;
23888;SDS011;12125;40.102;18.326;2022-12-04T06:23:58;6.32;;;3.20;;
23888;SDS011;12125;40.102;18.326;2022-12-04T06:26:25;9.90;;;3.47;;
23888;SDS011;12125;40.102;18.326;2022-12-04T06:28:53;8.05;;;3.13;;
23888;SDS011;12125;40.102;18.326;2022-12-04T06:31:21;6.20;;;3.70;;
23888;SDS011;12125;40.102;18.326;2022-12-04T06:33:53;8.32;;;3.17;;
23888;SDS011;12125;40.102;18.326;2022-12-04T06:36:22;6.35;;;3.58;;
23888;SDS011;12125;40.102;18.326;2022-12-04T06:38:49;9.20;;;3.65;;
23888;SDS011;12125;40.102;18.326;2022-12-04T06:41:18;8.18;;;3.45;;
23888;SDS011;12125;40.102;18.326;2022-12-04T06:43:45;7.72;;;3.35;;
23888;SDS011;12125;40.102;18.326;2022-12-04T06:46:14;6.97;;;4.13;;
23888;SDS011;12125;40.102;18.326;2022-12-04T06:48:41;8.60;;;4.10;;
23888;SDS011;12125;40.102;18.326;2022-12-04T06:51:13;7.70;;;4.03;;
23888;SDS011;12125;40.102;18.326;2022-12-04T06:53:40;9.52;;;4.30;;
23888;SDS011;12125;40.102;18.326;2022-12-04T06:56:09;7.22;;;3.78;;
23888;SDS011;12125;40.102;18.326;2022-12-04T06:58:37;12.68;;;4.40;;
23888;SDS011;12125;40.102;18.326;2022-12-04T07:01:08;11.57;;;4.45;;
23888;SDS011;12125;40.102;18.326;2022-12-04T07:03:35;10.02;;;4.13;;
23888;SDS011;12125;40.102;18.326;2022-12-04T07:06:12;17.38;;;6.18;;
23888;SDS011;12125;40.102;18.326;2022-12-04T07:08:39;12.93;;;5.55;;
23888;SDS011;12125;40.102;18.326;2022-12-04T07:11:06;13.77;;;6.07;;
23888;SDS011;12125;40.102;18.326;2022-12-04T07:13:33;18.30;;;6.80;;
23888;SDS011;12125;40.102;18.326;2022-12-04T07:16:01;19.67;;;6.13;;
23888;SDS011;12125;40.102;18.326;2022-12-04T07:18:29;17.00;;;5.63;;
23888;SDS011;12125;40.102;18.326;2022-12-04T07:20:56;24.33;;;7.50;;
23888;SDS011;12125;40.102;18.326;2022-12-04T07:23:23;29.73;;;6.97;;
23888;SDS011;12125;40.102;18.326;2022-12-04T07:25:50;21.25;;;6.40;;
23888;SDS011;12125;40.102;18.326;2022-12-04T07:28:18;20.33;;;6.80;;
23888;SDS011;12125;40.102;18.326;2022-12-04T07:30:44;23.70;;;7.03;;
23888;SDS011;12125;40.102;18.326;2022-12-04T07:33:12;31.65;;;6.60;;
23888;SDS011;12125;40.102;18.326;2022-12-04T07:35:41;31.58;;;7.45;;
23888;SDS011;12125;40.102;18.326;2022-12-04T07:38:08;34.30;;;7.10;;
23888;SDS011;12125;40.102;18.326;2022-12-04T07:40:36;29.20;;;7.13;;
23888;SDS011;12125;40.102;18.326;2022-12-04T07:43:03;22.20;;;6.72;;
23888;SDS011;12125;40.102;18.326;2022-12-04T07:45:30;21.13;;;5.72;;
23888;SDS011;12125;40.102;18.326;2022-12-04T07:47:57;21.05;;;6.32;;
23888;SDS011;12125;40.102;18.326;2022-12-04T07:50:24;19.58;;;4.97;;
23888;SDS011;12125;40.102;18.326;2022-12-04T07:52:51;19.13;;;5.25;;
23888;SDS011;12125;40.102;18.326;2022-12-04T07:55:18;18.35;;;5.28;;
23888;SDS011;12125;40.102;18.326;2022-12-04T07:57:45;22.25;;;5.60;;
23888;SDS011;12125;40.102;18.326;2022-12-04T08:00:12;15.98;;;5.35;;
23888;SDS011;12125;40.102;18.326;2022-12-04T08:02:39;18.75;;;4.55;;
23888;SDS011;12125;40.102;18.326;2022-12-04T08:05:06;19.35;;;5.57;;
23888;SDS011;12125;40.102;18.326;2022-12-04T08:07:34;12.80;;;4.57;;
23888;SDS011;12125;40.102;18.326;2022-12-04T08:10:01;17.73;;;5.57;;
23888;SDS011;12125;40.102;18.326;2022-12-04T08:12:27;19.48;;;5.70;;
23888;SDS011;12125;40.102;18.326;2022-12-04T08:14:54;19.80;;;6.10;;
23888;SDS011;12125;40.102;18.326;2022-12-04T08:17:21;25.90;;;6.43;;
23888;SDS011;12125;40.102;18.326;2022-12-04T08:19:48;22.27;;;6.90;;
23888;SDS011;12125;40.102;18.326;2022-12-04T08:22:15;19.83;;;6.18;;
23888;SDS011;12125;40.102;18.326;2022-12-04T08:24:42;19.73;;;5.47;;
23888;SDS011;12125;40.102;18.326;2022-12-04T08:27:09;23.23;;;5.78;;
23888;SDS011;12125;40.102;18.326;2022-12-04T08:29:36;14.57;;;4.97;;
23888;SDS011;12125;40.102;18.326;2022-12-04T08:32:04;16.23;;;5.60;;
23888;SDS011;12125;40.102;18.326;2022-12-04T08:34:31;17.75;;;7.07;;
23888;SDS011;12125;40.102;18.326;2022-12-04T08:36:58;21.38;;;6.15;;
23888;SDS011;12125;40.102;18.326;2022-12-04T08:39:25;16.73;;;5.60;;
23888;SDS011;12125;40.102;18.326;2022-12-04T08:41:52;17.05;;;4.97;;
23888;SDS011;12125;40.102;18.326;2022-12-04T08:44:19;11.52;;;4.43;;
23888;SDS011;12125;40.102;18.326;2022-12-04T08:46:46;16.98;;;4.90;;
23888;SDS011;12125;40.102;18.326;2022-12-04T08:49:13;15.73;;;4.38;;
23888;SDS011;12125;40.102;18.326;2022-12-04T08:51:40;15.85;;;4.38;;
23888;SDS011;12125;40.102;18.326;2022-12-04T08:54:07;14.30;;;4.53;;
23888;SDS011;12125;40.102;18.326;2022-12-04T08:56:34;12.93;;;4.65;;
23888;SDS011;12125;40.102;18.326;2022-12-04T08:59:02;11.68;;;4.53;;
23888;SDS011;12125;40.102;18.326;2022-12-04T09:01:29;12.70;;;4.55;;
23888;SDS011;12125;40.102;18.326;2022-12-04T09:03:56;12.70;;;4.85;;
23888;SDS011;12125;40.102;18.326;2022-12-04T09:06:23;9.35;;;4.35;;
23888;SDS011;12125;40.102;18.326;2022-12-04T09:08:51;12.77;;;5.22;;
23888;SDS011;12125;40.102;18.326;2022-12-04T09:11:20;12.65;;;5.10;;
23888;SDS011;12125;40.102;18.326;2022-12-04T09:13:47;14.82;;;5.45;;
23888;SDS011;12125;40.102;18.326;2022-12-04T09:16:18;14.00;;;5.28;;
23888;SDS011;12125;40.102;18.326;2022-12-04T09:18:46;22.95;;;5.72;;
23888;SDS011;12125;40.102;18.326;2022-12-04T09:21:14;14.55;;;5.70;;
23888;SDS011;12125;40.102;18.326;2022-12-04T09:23:41;15.68;;;4.70;;
23888;SDS011;12125;40.102;18.326;2022-12-04T09:26:29;19.75;;;5.80;;
23888;SDS011;12125;40.102;18.326;2022-12-04T09:28:58;12.55;;;4.80;;
23888;SDS011;12125;40.102;18.326;2022-12-04T09:31:25;20.20;;;5.43;;
23888;SDS011;12125;40.102;18.326;2022-12-04T09:33:53;17.15;;;5.55;;
23888;SDS011;12125;40.102;18.326;2022-12-04T09:36:20;14.55;;;5.22;;
23888;SDS011;12125;40.102;18.326;2022-12-04T09:38:48;18.08;;;5.05;;
23888;SDS011;12125;40.102;18.326;2022-12-04T09:49:16;16.63;;;5.45;;
23888;SDS011;12125;40.102;18.326;2022-12-04T09:51:45;22.25;;;6.43;;
23888;SDS011;12125;40.102;18.326;2022-12-04T09:54:14;22.52;;;6.47;;
23888;SDS011;12125;40.102;18.326;2022-12-04T09:56:47;13.20;;;4.45;;
23888;SDS011;12125;40.102;18.326;2022-12-04T09:59:39;17.33;;;5.05;;
23888;SDS011;12125;40.102;18.326;2022-12-04T10:03:02;15.10;;;4.07;;
23888;SDS011;12125;40.102;18.326;2022-12-04T10:08:18;16.83;;;4.95;;
23888;SDS011;12125;40.102;18.326;2022-12-04T10:11:00;15.75;;;4.45;;
23888;SDS011;12125;40.102;18.326;2022-12-04T10:13:46;14.55;;;5.20;;
23888;SDS011;12125;40.102;18.326;2022-12-04T10:21:24;12.70;;;3.75;;
23888;SDS011;12125;40.102;18.326;2022-12-04T10:24:02;16.20;;;3.90;;
23888;SDS011;12125;40.102;18.326;2022-12-04T10:26:34;14.85;;;3.78;;
23888;SDS011;12125;40.102;18.326;2022-12-04T10:29:07;10.88;;;4.10;;
23888;SDS011;12125;40.102;18.326;2022-12-04T10:31:44;15.60;;;5.15;;
23888;SDS011;12125;40.102;18.326;2022-12-04T10:34:16;13.93;;;4.28;;
23888;SDS011;12125;40.102;18.326;2022-12-04T10:36:45;9.93;;;4.00;;
23888;SDS011;12125;40.102;18.326;2022-12-04T10:39:34;20.88;;;4.93;;
23888;SDS011;12125;40.102;18.326;2022-12-04T10:42:05;7.53;;;3.67;;
23888;SDS011;12125;40.102;18.326;2022-12-04T10:44:38;9.88;;;3.40;;
23888;SDS011;12125;40.102;18.326;2022-12-04T10:47:08;9.32;;;3.30;;
23888;SDS011;12125;40.102;18.326;2022-12-04T10:49:38;10.02;;;3.08;;
23888;SDS011;12125;40.102;18.326;2022-12-04T10:52:08;12.13;;;3.40;;
23888;SDS011;12125;40.102;18.326;2022-12-04T10:57:10;8.50;;;3.42;;
23888;SDS011;12125;40.102;18.326;2022-12-04T10:59:52;16.33;;;3.72;;
23888;SDS011;12125;40.102;18.326;2022-12-04T11:02:24;10.63;;;3.03;;
23888;SDS011;12125;40.102;18.326;2022-12-04T11:04:57;11.32;;;3.35;;
23888;SDS011;12125;40.102;18.326;2022-12-04T11:07:28;12.23;;;2.97;;
23888;SDS011;12125;40.102;18.326;2022-12-04T11:09:58;10.93;;;2.92;;
23888;SDS011;12125;40.102;18.326;2022-12-04T11:12:28;14.40;;;3.58;;
23888;SDS011;12125;40.102;18.326;2022-12-04T11:17:37;14.52;;;3.88;;
23888;SDS011;12125;40.102;18.326;2022-12-04T11:20:08;13.13;;;3.45;;
23888;SDS011;12125;40.102;18.326;2022-12-04T11:22:47;16.83;;;3.78;;
23888;SDS011;12125;40.102;18.326;2022-12-04T11:25:16;9.75;;;3.97;;
23888;SDS011;12125;40.102;18.326;2022-12-04T11:27:47;9.25;;;3.28;;
23888;SDS011;12125;40.102;18.326;2022-12-04T11:30:18;15.48;;;3.50;;
23888;SDS011;12125;40.102;18.326;2022-12-04T11:32:45;15.93;;;3.65;;
23888;SDS011;12125;40.102;18.326;2022-12-04T11:35:13;15.00;;;3.45;;
23888;SDS011;12125;40.102;18.326;2022-12-04T11:37:49;10.98;;;3.70;;
23888;SDS011;12125;40.102;18.326;2022-12-04T11:40:17;11.13;;;3.70;;
23888;SDS011;12125;40.102;18.326;2022-12-04T11:42:55;13.43;;;3.45;;
23888;SDS011;12125;40.102;18.326;2022-12-04T11:45:23;10.30;;;2.80;;
23888;SDS011;12125;40.102;18.326;2022-12-04T11:47:57;10.45;;;3.15;;
23888;SDS011;12125;40.102;18.326;2022-12-04T11:56:40;10.15;;;2.47;;
23888;SDS011;12125;40.102;18.326;2022-12-04T12:02:45;11.13;;;3.35;;
23888;SDS011;12125;40.102;18.326;2022-12-04T12:05:23;5.75;;;2.10;;
23888;SDS011;12125;40.102;18.326;2022-12-04T12:08:06;7.90;;;2.53;;
23888;SDS011;12125;40.102;18.326;2022-12-04T12:11:03;7.50;;;2.03;;
23888;SDS011;12125;40.102;18.326;2022-12-04T12:13:32;5.88;;;2.30;;
23888;SDS011;12125;40.102;18.326;2022-12-04T12:21:35;6.07;;;2.33;;
23888;SDS011;12125;40.102;18.326;2022-12-04T12:24:20;8.70;;;2.30;;
23888;SDS011;12125;40.102;18.326;2022-12-04T12:32:23;9.05;;;2.55;;
23888;SDS011;12125;40.102;18.326;2022-12-04T12:34:55;8.65;;;2.28;;
23888;SDS011;12125;40.102;18.326;2022-12-04T12:37:27;4.55;;;2.15;;
23888;SDS011;12125;40.102;18.326;2022-12-04T12:40:03;6.78;;;2.55;;
23888;SDS011;12125;40.102;18.326;2022-12-04T12:42:35;5.22;;;2.30;;
23888;SDS011;12125;40.102;18.326;2022-12-04T12:45:06;13.38;;;3.10;;
23888;SDS011;12125;40.102;18.326;2022-12-04T12:47:42;8.65;;;2.78;;
23888;SDS011;12125;40.102;18.326;2022-12-04T12:50:15;11.80;;;2.88;;
23888;SDS011;12125;40.102;18.326;2022-12-04T12:53:03;9.13;;;2.60;;
23888;SDS011;12125;40.102;18.326;2022-12-04T12:55:39;9.48;;;3.30;;
23888;SDS011;12125;40.102;18.326;2022-12-04T12:58:11;9.90;;;2.95;;
23888;SDS011;12125;40.102;18.326;2022-12-04T13:00:43;11.82;;;3.17;;
23888;SDS011;12125;40.102;18.326;2022-12-04T13:03:31;10.68;;;3.58;;
23888;SDS011;12125;40.102;18.326;2022-12-04T13:06:04;15.30;;;4.53;;
23888;SDS011;12125;40.102;18.326;2022-12-04T13:08:34;10.05;;;3.35;;
23888;SDS011;12125;40.102;18.326;2022-12-04T13:11:04;6.15;;;2.95;;
23888;SDS011;12125;40.102;18.326;2022-12-04T13:13:33;14.63;;;3.03;;
23888;SDS011;12125;40.102;18.326;2022-12-04T13:18:29;7.80;;;3.13;;
23888;SDS011;12125;40.102;18.326;2022-12-04T13:20:59;9.35;;;3.03;;
23888;SDS011;12125;40.102;18.326;2022-12-04T13:23:45;10.13;;;3.72;;
23888;SDS011;12125;40.102;18.326;2022-12-04T13:34:01;10.93;;;3.33;;
23888;SDS011;12125;40.102;18.326;2022-12-04T13:36:38;10.88;;;3.70;;
23888;SDS011;12125;40.102;18.326;2022-12-04T13:41:57;17.60;;;4.50;;
23888;SDS011;12125;40.102;18.326;2022-12-04T13:44:25;11.27;;;4.10;;
23888;SDS011;12125;40.102;18.326;2022-12-04T13:46:57;14.20;;;3.80;;
23888;SDS011;12125;40.102;18.326;2022-12-04T13:49:29;18.80;;;4.22;;
23888;SDS011;12125;40.102;18.326;2022-12-04T13:51:57;12.77;;;3.67;;
23888;SDS011;12125;40.102;18.326;2022-12-04T13:54:26;15.88;;;3.92;;
23888;SDS011;12125;40.102;18.326;2022-12-04T13:56:55;14.50;;;3.50;;
23888;SDS011;12125;40.102;18.326;2022-12-04T14:01:59;14.45;;;4.32;;
23888;SDS011;12125;40.102;18.326;2022-12-04T14:07:05;16.08;;;4.20;;
23888;SDS011;12125;40.102;18.326;2022-12-04T14:12:03;15.23;;;3.85;;
23888;SDS011;12125;40.102;18.326;2022-12-04T14:16:58;13.02;;;3.88;;
23888;SDS011;12125;40.102;18.326;2022-12-04T14:19:36;14.38;;;3.25;;
23888;SDS011;12125;40.102;18.326;2022-12-04T14:22:05;16.45;;;4.10;;
23888;SDS011;12125;40.102;18.326;2022-12-04T14:24:38;23.10;;;4.57;;
23888;SDS011;12125;40.102;18.326;2022-12-04T14:29:53;19.48;;;4.80;;
23888;SDS011;12125;40.102;18.326;2022-12-04T14:32:23;14.90;;;3.90;;
23888;SDS011;12125;40.102;18.326;2022-12-04T14:34:51;17.02;;;3.90;;
23888;SDS011;12125;40.102;18.326;2022-12-04T14:37:29;22.08;;;5.32;;
23888;SDS011;12125;40.102;18.326;2022-12-04T14:39:57;17.77;;;4.20;;
23888;SDS011;12125;40.102;18.326;2022-12-04T14:44:53;13.27;;;4.00;;
23888;SDS011;12125;40.102;18.326;2022-12-04T14:52:21;24.55;;;4.57;;
23888;SDS011;12125;40.102;18.326;2022-12-04T15:00:19;18.48;;;4.13;;
23888;SDS011;12125;40.102;18.326;2022-12-04T15:02:56;15.32;;;3.80;;
23888;SDS011;12125;40.102;18.326;2022-12-04T15:05:25;15.98;;;3.65;;
23888;SDS011;12125;40.102;18.326;2022-12-04T15:07:53;15.80;;;4.30;;
23888;SDS011;12125;40.102;18.326;2022-12-04T15:10:23;15.30;;;3.60;;
23888;SDS011;12125;40.102;18.326;2022-12-04T15:13:08;14.68;;;3.55;;
23888;SDS011;12125;40.102;18.326;2022-12-04T15:15:36;11.02;;;3.30;;
23888;SDS011;12125;40.102;18.326;2022-12-04T15:18:11;17.70;;;3.50;;
23888;SDS011;12125;40.102;18.326;2022-12-04T15:23:27;12.10;;;3.38;;
23888;SDS011;12125;40.102;18.326;2022-12-04T15:25:55;17.92;;;4.95;;
23888;SDS011;12125;40.102;18.326;2022-12-04T15:28:23;15.52;;;3.28;;
23888;SDS011;12125;40.102;18.326;2022-12-04T15:30:51;15.07;;;3.90;;
23888;SDS011;12125;40.102;18.326;2022-12-04T15:33:23;15.32;;;3.53;;
23888;SDS011;12125;40.102;18.326;2022-12-04T15:35:53;12.57;;;3.50;;
23888;SDS011;12125;40.102;18.326;2022-12-04T15:38:21;15.25;;;3.75;;
23888;SDS011;12125;40.102;18.326;2022-12-04T15:40:52;14.02;;;3.78;;
23888;SDS011;12125;40.102;18.326;2022-12-04T15:43:29;19.55;;;4.20;;
23888;SDS011;12125;40.102;18.326;2022-12-04T15:45:57;12.35;;;3.72;;
23888;SDS011;12125;40.102;18.326;2022-12-04T15:48:29;18.75;;;3.75;;
23888;SDS011;12125;40.102;18.326;2022-12-04T15:50:59;15.98;;;3.10;;
23888;SDS011;12125;40.102;18.326;2022-12-04T15:53:29;16.40;;;3.45;;
23888;SDS011;12125;40.102;18.326;2022-12-04T15:56:02;19.60;;;3.55;;
23888;SDS011;12125;40.102;18.326;2022-12-04T15:58:31;13.45;;;3.67;;
23888;SDS011;12125;40.102;18.326;2022-12-04T16:01:05;18.45;;;3.80;;
23888;SDS011;12125;40.102;18.326;2022-12-04T16:08:45;18.58;;;3.50;;
23888;SDS011;12125;40.102;18.326;2022-12-04T16:13:47;13.13;;;3.10;;
23888;SDS011;12125;40.102;18.326;2022-12-04T16:16:20;13.82;;;3.65;;
23888;SDS011;12125;40.102;18.326;2022-12-04T16:18:48;12.90;;;3.67;;
23888;SDS011;12125;40.102;18.326;2022-12-04T16:21:16;12.80;;;3.80;;
23888;SDS011;12125;40.102;18.326;2022-12-04T16:23:44;12.05;;;3.33;;
23888;SDS011;12125;40.102;18.326;2022-12-04T16:26:16;11.60;;;3.63;;
23888;SDS011;12125;40.102;18.326;2022-12-04T16:28:46;10.95;;;3.38;;
23888;SDS011;12125;40.102;18.326;2022-12-04T16:31:14;20.20;;;3.58;;
23888;SDS011;12125;40.102;18.326;2022-12-04T16:33:43;17.08;;;3.92;;
23888;SDS011;12125;40.102;18.326;2022-12-04T16:36:11;17.58;;;4.10;;
23888;SDS011;12125;40.102;18.326;2022-12-04T16:38:38;11.38;;;3.63;;
23888;SDS011;12125;40.102;18.326;2022-12-04T16:41:05;9.80;;;3.58;;
23888;SDS011;12125;40.102;18.326;2022-12-04T16:43:34;13.63;;;3.95;;
23888;SDS011;12125;40.102;18.326;2022-12-04T16:46:01;19.23;;;3.95;;
23888;SDS011;12125;40.102;18.326;2022-12-04T16:48:28;14.55;;;3.90;;
23888;SDS011;12125;40.102;18.326;2022-12-04T16:50:59;22.05;;;4.50;;